createdAt,value
2019-04-06T00:00:54.606Z,996.60
2019-04-06T00:01:53.595Z,996.54
2019-04-06T00:02:53.591Z,996.55
2019-04-06T00:03:53.586Z,996.51
2019-04-06T00:04:53.564Z,996.59
2019-04-06T00:05:53.614Z,996.61
2019-04-06T00:06:53.559Z,996.55
2019-04-06T00:07:53.544Z,996.52
2019-04-06T00:08:53.564Z,996.46
2019-04-06T00:09:53.522Z,996.53
2019-04-06T00:10:55.262Z,996.50
2019-04-06T00:11:53.487Z,996.40
2019-04-06T00:12:53.509Z,996.45
2019-04-06T00:13:53.468Z,996.41
2019-04-06T00:14:53.461Z,996.44
2019-04-06T00:15:53.531Z,996.42
2019-04-06T00:16:53.437Z,996.46
2019-04-06T00:17:53.452Z,996.45
2019-04-06T00:18:53.432Z,996.44
2019-04-06T00:19:53.467Z,996.41
2019-04-06T00:20:53.449Z,996.32
2019-04-06T00:21:53.385Z,996.39
2019-04-06T00:22:53.393Z,996.38
2019-04-06T00:23:53.409Z,996.36
2019-04-06T00:24:53.418Z,996.40
2019-04-06T00:25:53.395Z,996.37
2019-04-06T00:26:53.327Z,996.30
2019-04-06T00:27:53.309Z,996.35
2019-04-06T00:28:53.304Z,996.35
2019-04-06T00:29:53.293Z,996.39
2019-04-06T00:30:54.070Z,996.32
2019-04-06T00:31:53.269Z,996.30
2019-04-06T00:32:53.262Z,996.28
2019-04-06T00:33:53.251Z,996.25
2019-04-06T00:34:53.281Z,996.32
2019-04-06T00:35:53.275Z,996.36
2019-04-06T00:36:53.215Z,996.34
2019-04-06T00:37:53.254Z,996.37
2019-04-06T00:38:53.194Z,996.36
2019-04-06T00:39:53.193Z,996.37
2019-04-06T00:40:53.214Z,996.23
2019-04-06T00:41:53.190Z,996.27
2019-04-06T00:42:53.162Z,996.26
2019-04-06T00:43:53.141Z,996.20
2019-04-06T00:44:53.163Z,996.30
2019-04-06T00:45:53.176Z,996.23
2019-04-06T00:46:53.163Z,996.18
2019-04-06T00:47:53.103Z,996.20
2019-04-06T00:48:53.117Z,996.24
2019-04-06T00:49:54.087Z,996.14
2019-04-06T00:50:53.132Z,996.20
2019-04-06T00:51:53.219Z,996.17
2019-04-06T00:52:53.044Z,996.17
2019-04-06T00:53:53.027Z,996.19
2019-04-06T00:54:53.022Z,996.11
2019-04-06T00:55:55.793Z,996.05
2019-04-06T00:56:52.998Z,996.05
2019-04-06T00:57:53.005Z,996.08
2019-04-06T00:58:52.973Z,996.04
2019-04-06T00:59:52.963Z,996.01
2019-04-06T01:00:52.995Z,996.05
2019-04-06T01:01:53.124Z,996.07
2019-04-06T01:02:52.947Z,996.06
2019-04-06T01:03:52.933Z,996.03
2019-04-06T01:04:52.952Z,996.01
2019-04-06T01:05:52.942Z,996.08
2019-04-06T01:06:52.885Z,996.11
2019-04-06T01:07:52.981Z,996.09
2019-04-06T01:08:52.868Z,996.08
2019-04-06T01:09:52.847Z,996.07
2019-04-06T01:10:52.891Z,996.04
2019-04-06T01:11:52.942Z,996.02
2019-04-06T01:12:52.814Z,995.98
2019-04-06T01:13:52.808Z,996.03
2019-04-06T01:14:52.799Z,995.95
2019-04-06T01:15:52.835Z,996.03
2019-04-06T01:16:52.786Z,996.03
2019-04-06T01:17:52.768Z,995.93
2019-04-06T01:18:52.751Z,995.92
2019-04-06T01:19:52.743Z,995.88
2019-04-06T01:20:52.787Z,995.83
2019-04-06T01:21:52.754Z,995.88
2019-04-06T01:22:52.717Z,995.94
2019-04-06T01:23:52.706Z,995.82
2019-04-06T01:24:52.685Z,995.87
2019-04-06T01:25:52.708Z,995.98
2019-04-06T01:26:52.678Z,996.01
2019-04-06T01:27:52.704Z,995.95
2019-04-06T01:28:52.699Z,996.00
2019-04-06T01:29:52.633Z,996.00
2019-04-06T01:30:52.712Z,995.98
2019-04-06T01:31:52.648Z,996.06
2019-04-06T01:32:53.679Z,996.08
2019-04-06T01:33:52.583Z,996.10
2019-04-06T01:34:52.585Z,996.05
2019-04-06T01:35:52.638Z,996.07
2019-04-06T01:36:52.556Z,996.06
2019-04-06T01:37:52.556Z,996.01
2019-04-06T01:38:52.546Z,996.00
2019-04-06T01:39:52.561Z,996.05
2019-04-06T01:40:52.546Z,996.05
2019-04-06T01:41:52.497Z,995.99
2019-04-06T01:42:52.551Z,995.98
2019-04-06T01:43:52.534Z,995.99
2019-04-06T01:44:52.470Z,995.95
2019-04-06T01:45:52.507Z,995.95
2019-04-06T01:46:52.443Z,995.96
2019-04-06T01:47:52.429Z,995.99
2019-04-06T01:48:52.445Z,996.10
2019-04-06T01:49:52.421Z,996.00
2019-04-06T01:50:52.508Z,996.08
2019-04-06T01:51:52.409Z,995.95
2019-04-06T01:52:52.374Z,996.02
2019-04-06T01:53:52.373Z,996.00
2019-04-06T01:54:52.377Z,995.98
2019-04-06T01:55:52.439Z,996.06
2019-04-06T01:56:52.372Z,996.08
2019-04-06T01:57:52.315Z,996.08
2019-04-06T01:58:52.323Z,996.10
2019-04-06T01:59:52.313Z,996.08
2019-04-06T02:00:52.281Z,996.07
2019-04-06T02:01:52.327Z,996.06
2019-04-06T02:02:52.343Z,996.01
2019-04-06T02:03:52.340Z,995.95
2019-04-06T02:04:52.278Z,995.98
2019-04-06T02:05:52.225Z,995.98
2019-04-06T02:06:52.279Z,995.95
2019-04-06T02:07:52.308Z,996.04
2019-04-06T02:08:52.342Z,995.98
2019-04-06T02:09:52.197Z,995.98
2019-04-06T02:10:52.174Z,995.90
2019-04-06T02:11:53.058Z,995.96
2019-04-06T02:12:52.189Z,995.91
2019-04-06T02:13:52.177Z,995.89
2019-04-06T02:14:52.143Z,995.89
2019-04-06T02:15:52.121Z,995.94
2019-04-06T02:16:52.240Z,995.92
2019-04-06T02:17:52.103Z,995.86
2019-04-06T02:18:52.102Z,995.90
2019-04-06T02:19:52.080Z,995.88
2019-04-06T02:20:52.065Z,995.88
2019-04-06T02:21:52.113Z,995.82
2019-04-06T02:22:52.130Z,995.85
2019-04-06T02:23:52.098Z,995.84
2019-04-06T02:24:52.019Z,995.88
2019-04-06T02:25:52.005Z,995.89
2019-04-06T02:26:52.061Z,995.86
2019-04-06T02:27:52.001Z,995.86
2019-04-06T02:28:52.010Z,995.88
2019-04-06T02:29:51.962Z,995.85
2019-04-06T02:30:51.984Z,995.81
2019-04-06T02:31:51.981Z,995.78
2019-04-06T02:32:51.941Z,995.88
2019-04-06T02:33:51.946Z,995.87
2019-04-06T02:34:51.920Z,995.84
2019-04-06T02:35:51.903Z,995.85
2019-04-06T02:36:51.936Z,995.89
2019-04-06T02:37:51.874Z,995.92
2019-04-06T02:38:51.887Z,995.86
2019-04-06T02:39:51.860Z,995.92
2019-04-06T02:40:51.873Z,995.87
2019-04-06T02:41:51.885Z,995.91
2019-04-06T02:42:51.943Z,995.92
2019-04-06T02:43:51.812Z,995.91
2019-04-06T02:44:51.793Z,995.94
2019-04-06T02:45:51.799Z,995.97
2019-04-06T02:46:52.027Z,996.09
2019-04-06T02:47:51.763Z,995.96
2019-04-06T02:48:51.759Z,995.96
2019-04-06T02:49:51.737Z,995.99
2019-04-06T02:50:51.758Z,995.94
2019-04-06T02:51:51.729Z,995.95
2019-04-06T02:52:51.797Z,995.95
2019-04-06T02:53:51.696Z,995.97
2019-04-06T02:54:51.935Z,996.05
2019-04-06T02:55:51.702Z,995.92
2019-04-06T02:56:51.676Z,995.95
2019-04-06T02:57:51.757Z,995.97
2019-04-06T02:58:51.643Z,995.96
2019-04-06T02:59:51.678Z,995.96
2019-04-06T03:00:51.631Z,995.96
2019-04-06T03:01:51.638Z,995.98
2019-04-06T03:02:51.650Z,995.95
2019-04-06T03:03:51.622Z,995.98
2019-04-06T03:04:51.584Z,995.95
2019-04-06T03:05:51.563Z,995.97
2019-04-06T03:06:51.603Z,995.95
2019-04-06T03:07:53.436Z,995.96
2019-04-06T03:08:51.530Z,996.01
2019-04-06T03:09:51.568Z,995.99
2019-04-06T03:10:51.503Z,995.98
2019-04-06T03:11:51.569Z,995.88
2019-04-06T03:12:51.561Z,995.88
2019-04-06T03:13:51.520Z,995.93
2019-04-06T03:14:51.579Z,995.90
2019-04-06T03:15:51.465Z,995.91
2019-04-06T03:16:51.573Z,995.88
2019-04-06T03:17:51.477Z,995.88
2019-04-06T03:18:51.422Z,995.93
2019-04-06T03:19:51.409Z,995.93
2019-04-06T03:20:51.389Z,995.97
2019-04-06T03:21:51.419Z,995.98
2019-04-06T03:22:51.425Z,995.95
2019-04-06T03:23:52.416Z,995.98
2019-04-06T03:24:51.390Z,995.94
2019-04-06T03:25:51.358Z,995.97
2019-04-06T03:27:01.004Z,996.02
2019-04-06T03:27:52.401Z,995.99
2019-04-06T03:28:51.316Z,995.98
2019-04-06T03:29:58.338Z,995.96
2019-04-06T03:30:52.358Z,996.00
2019-04-06T03:31:51.631Z,996.01
2019-04-06T03:32:51.327Z,995.96
2019-04-06T03:33:51.300Z,995.96
2019-04-06T03:34:51.298Z,995.97
2019-04-06T03:35:51.944Z,996.01
2019-04-06T03:36:51.334Z,995.97
2019-04-06T03:37:53.135Z,996.04
2019-04-06T03:38:51.443Z,995.94
2019-04-06T03:39:51.337Z,996.04
2019-04-06T03:40:51.217Z,995.98
2019-04-06T03:41:51.230Z,995.99
2019-04-06T03:42:51.284Z,995.97
2019-04-06T03:43:51.181Z,996.05
2019-04-06T03:44:51.275Z,995.99
2019-04-06T03:45:51.636Z,996.02
2019-04-06T03:46:51.391Z,995.94
2019-04-06T03:47:51.403Z,995.99
2019-04-06T03:48:51.373Z,996.03
2019-04-06T03:49:51.518Z,995.94
2019-04-06T03:50:51.279Z,995.98
2019-04-06T03:51:51.466Z,996.00
2019-04-06T03:52:51.583Z,995.96
2019-04-06T03:53:51.048Z,995.95
2019-04-06T03:54:51.233Z,995.91
2019-04-06T03:55:51.303Z,995.87
2019-04-06T03:56:51.039Z,995.84
2019-04-06T03:57:51.042Z,995.90
2019-04-06T03:58:52.335Z,995.86
2019-04-06T03:59:50.977Z,995.86
2019-04-06T04:00:53.588Z,995.87
2019-04-06T04:01:56.287Z,995.88
2019-04-06T04:02:51.114Z,995.91
2019-04-06T04:06:06.089Z,995.89
2019-04-06T04:07:08.481Z,995.90
2019-04-06T04:08:04.970Z,995.91
2019-04-06T04:09:14.567Z,995.88
2019-04-06T04:09:58.509Z,995.87
2019-04-06T04:11:11.757Z,995.89
2019-04-06T04:11:59.470Z,995.87
2019-04-06T04:13:12.108Z,995.91
2019-04-06T04:13:56.669Z,995.90
2019-04-06T04:14:56.631Z,995.86
2019-04-06T04:15:57.499Z,995.85
2019-04-06T04:17:02.787Z,995.81
2019-04-06T04:17:57.322Z,995.80
2019-04-06T04:19:06.557Z,995.82
2019-04-06T04:19:56.830Z,995.78
2019-04-06T04:20:58.028Z,995.81
2019-04-06T04:21:57.086Z,995.82
2019-04-06T04:22:59.905Z,995.85
2019-04-06T04:23:57.246Z,995.87
2019-04-06T04:24:56.666Z,995.86
2019-04-06T04:25:56.826Z,995.76
2019-04-06T04:26:57.593Z,995.81
2019-04-06T04:27:56.847Z,995.73
2019-04-06T04:28:59.205Z,995.72
2019-04-06T04:29:56.690Z,995.70
2019-04-06T04:31:03.436Z,995.69
2019-04-06T04:31:57.224Z,995.63
2019-04-06T04:32:58.740Z,995.63
2019-04-06T04:33:58.242Z,995.68
2019-04-06T04:35:04.635Z,995.64
2019-04-06T04:35:59.301Z,995.64
2019-04-06T04:36:57.884Z,995.59
2019-04-06T04:38:00.975Z,995.64
2019-04-06T04:38:57.327Z,995.56
2019-04-06T04:39:56.796Z,995.65
2019-04-06T04:40:56.541Z,995.69
2019-04-06T04:41:56.452Z,995.72
2019-04-06T04:42:56.826Z,995.74
2019-04-06T04:43:56.371Z,995.79
2019-04-06T04:44:56.372Z,995.80
2019-04-06T04:45:56.443Z,995.88
2019-04-06T04:46:56.450Z,995.90
2019-04-06T04:47:57.907Z,995.90
2019-04-06T04:48:56.357Z,995.92
2019-04-06T04:49:56.377Z,995.93
2019-04-06T04:50:56.414Z,995.88
2019-04-06T04:51:56.422Z,995.86
2019-04-06T04:52:56.406Z,995.89
2019-04-06T04:53:56.263Z,995.93
2019-04-06T04:54:56.298Z,995.92
2019-04-06T04:55:56.239Z,995.93
2019-04-06T04:56:56.340Z,995.88
2019-04-06T04:57:56.513Z,995.81
2019-04-06T04:58:56.413Z,995.86
2019-04-06T04:59:57.140Z,995.83
2019-04-06T05:00:56.207Z,995.81
2019-04-06T05:01:56.138Z,995.76
2019-04-06T05:02:56.283Z,995.84
2019-04-06T05:03:56.265Z,995.89
2019-04-06T05:04:56.208Z,995.93
2019-04-06T05:05:56.183Z,995.87
2019-04-06T05:06:56.153Z,995.89
2019-04-06T05:07:56.165Z,995.98
2019-04-06T05:08:56.053Z,995.97
2019-04-06T05:09:56.181Z,996.05
2019-04-06T05:10:56.018Z,996.01
2019-04-06T05:11:56.235Z,995.97
2019-04-06T05:12:56.305Z,995.99
2019-04-06T05:13:55.990Z,996.02
2019-04-06T05:14:56.080Z,995.96
2019-04-06T05:15:56.183Z,996.03
2019-04-06T05:16:56.188Z,996.05
2019-04-06T05:17:56.166Z,996.04
2019-04-06T05:18:56.118Z,996.07
2019-04-06T05:19:56.091Z,996.09
2019-04-06T05:20:56.153Z,996.14
2019-04-06T05:21:56.162Z,996.14
2019-04-06T05:22:55.971Z,996.20
2019-04-06T05:23:56.184Z,996.21
2019-04-06T05:24:55.871Z,996.19
2019-04-06T05:25:56.021Z,996.16
2019-04-06T05:26:55.902Z,996.20
2019-04-06T05:27:56.278Z,996.16
2019-04-06T05:28:55.946Z,996.23
2019-04-06T05:29:55.831Z,996.23
2019-04-06T05:30:55.815Z,996.23
2019-04-06T05:31:56.041Z,996.20
2019-04-06T05:32:56.001Z,996.28
2019-04-06T05:33:56.091Z,996.25
2019-04-06T05:34:58.023Z,996.28
2019-04-06T05:35:55.817Z,996.30
2019-04-06T05:36:56.052Z,996.28
2019-04-06T05:37:55.871Z,996.20
2019-04-06T05:38:55.841Z,996.21
2019-04-06T05:39:55.696Z,996.23
2019-04-06T05:40:55.763Z,996.26
2019-04-06T05:41:55.705Z,996.25
2019-04-06T05:42:55.780Z,996.25
2019-04-06T05:43:55.882Z,996.17
2019-04-06T05:44:55.740Z,996.19
2019-04-06T05:45:55.719Z,996.14
2019-04-06T05:46:55.697Z,996.14
2019-04-06T05:47:55.740Z,996.14
2019-04-06T05:48:56.340Z,996.18
2019-04-06T05:49:55.614Z,996.14
2019-04-06T05:50:55.632Z,996.15
2019-04-06T05:51:55.655Z,996.14
2019-04-06T05:52:55.670Z,996.17
2019-04-06T05:53:56.698Z,996.21
2019-04-06T05:54:55.803Z,996.16
2019-04-06T05:55:56.004Z,996.22
2019-04-06T05:56:55.522Z,996.28
2019-04-06T05:58:03.506Z,996.30
2019-04-06T05:58:56.659Z,996.33
2019-04-06T05:59:55.550Z,996.36
2019-04-06T06:00:55.483Z,996.36
2019-04-06T06:01:55.751Z,996.35
2019-04-06T06:02:55.427Z,996.38
2019-04-06T06:03:55.501Z,996.39
2019-04-06T06:04:55.450Z,996.46
2019-04-06T06:05:55.453Z,996.51
2019-04-06T06:06:55.427Z,996.43
2019-04-06T06:07:55.607Z,996.43
2019-04-06T06:08:55.468Z,996.42
2019-04-06T06:09:55.435Z,996.42
2019-04-06T06:10:55.384Z,996.48
2019-04-06T06:11:55.940Z,996.50
2019-04-06T06:12:55.430Z,996.50
2019-04-06T06:13:58.126Z,996.45
2019-04-06T06:14:55.339Z,996.47
2019-04-06T06:15:55.480Z,996.48
2019-04-06T06:16:55.375Z,996.50
2019-04-06T06:17:56.451Z,996.50
2019-04-06T06:18:55.385Z,996.45
2019-04-06T06:19:55.238Z,996.45
2019-04-06T06:20:55.263Z,996.47
2019-04-06T06:21:55.289Z,996.48
2019-04-06T06:22:55.275Z,996.50
2019-04-06T06:23:55.419Z,996.47
2019-04-06T06:24:55.196Z,996.47
2019-04-06T06:25:55.185Z,996.43
2019-04-06T06:26:56.671Z,996.49
2019-04-06T06:27:55.352Z,996.45
2019-04-06T06:28:55.603Z,996.44
2019-04-06T06:29:55.146Z,996.45
2019-04-06T06:30:55.131Z,996.50
2019-04-06T06:31:55.136Z,996.42
2019-04-06T06:32:55.167Z,996.44
2019-04-06T06:33:55.354Z,996.44
2019-04-06T06:34:55.264Z,996.44
2019-04-06T06:35:55.115Z,996.51
2019-04-06T06:36:55.064Z,996.43
2019-04-06T06:37:56.099Z,996.45
2019-04-06T06:38:55.181Z,996.53
2019-04-06T06:39:55.277Z,996.48
2019-04-06T06:40:55.043Z,996.52
2019-04-06T06:41:55.174Z,996.46
2019-04-06T06:42:55.095Z,996.41
2019-04-06T06:43:55.170Z,996.48
2019-04-06T06:44:55.855Z,996.48
2019-04-06T06:45:55.093Z,996.44
2019-04-06T06:46:55.030Z,996.45
2019-04-06T06:47:55.068Z,996.45
2019-04-06T06:48:55.110Z,996.48
2019-04-06T06:49:55.151Z,996.47
2019-04-06T06:50:54.977Z,996.42
2019-04-06T06:51:54.970Z,996.43
2019-04-06T06:52:54.877Z,996.42
2019-04-06T06:53:55.005Z,996.38
2019-04-06T06:54:55.045Z,996.41
2019-04-06T06:55:54.884Z,996.34
2019-04-06T06:56:54.878Z,996.40
2019-04-06T06:57:54.842Z,996.46
2019-04-06T06:58:55.327Z,996.31
2019-04-06T06:59:54.923Z,996.33
2019-04-06T07:00:54.793Z,996.36
2019-04-06T07:01:54.779Z,996.40
2019-04-06T07:02:55.038Z,996.43
2019-04-06T07:03:55.716Z,996.36
2019-04-06T07:04:54.766Z,996.43
2019-04-06T07:05:54.779Z,996.38
2019-04-06T07:06:57.511Z,996.43
2019-04-06T07:07:54.717Z,996.46
2019-04-06T07:08:54.873Z,996.50
2019-04-06T07:10:04.476Z,996.45
2019-04-06T07:10:55.723Z,996.52
2019-04-06T07:11:54.869Z,996.43
2019-04-06T07:12:54.914Z,996.50
2019-04-06T07:13:54.762Z,996.42
2019-04-06T07:14:54.770Z,996.46
2019-04-06T07:15:55.602Z,996.49
2019-04-06T07:16:55.394Z,996.47
2019-04-06T07:17:54.664Z,996.44
2019-04-06T07:18:57.724Z,996.46
2019-04-06T07:19:55.642Z,996.44
2019-04-06T07:20:54.815Z,996.49
2019-04-06T07:21:54.598Z,996.50
2019-04-06T07:22:54.638Z,996.49
2019-04-06T07:23:54.655Z,996.50
2019-04-06T07:24:54.539Z,996.50
2019-04-06T07:25:58.711Z,996.46
2019-04-06T07:26:55.545Z,996.48
2019-04-06T07:27:54.554Z,996.46
2019-04-06T07:28:56.686Z,996.49
2019-04-06T07:29:54.657Z,996.49
2019-04-06T07:30:54.780Z,996.51
2019-04-06T07:31:54.455Z,996.46
2019-04-06T07:32:55.454Z,996.47
2019-04-06T07:33:54.494Z,996.48
2019-04-06T07:34:54.481Z,996.50
2019-04-06T07:35:54.384Z,996.49
2019-04-06T07:36:54.460Z,996.47
2019-04-06T07:37:54.399Z,996.45
2019-04-06T07:38:54.404Z,996.43
2019-04-06T07:39:54.475Z,996.46
2019-04-06T07:40:54.349Z,996.45
2019-04-06T07:41:54.368Z,996.34
2019-04-06T07:42:54.293Z,996.34
2019-04-06T07:43:54.289Z,996.37
2019-04-06T07:44:54.372Z,996.38
2019-04-06T07:45:54.256Z,996.37
2019-04-06T07:46:54.246Z,996.44
2019-04-06T07:47:54.240Z,996.39
2019-04-06T07:48:54.444Z,996.36
2019-04-06T07:49:54.538Z,996.40
2019-04-06T07:50:54.207Z,996.42
2019-04-06T07:51:54.183Z,996.33
2019-04-06T07:52:54.269Z,996.43
2019-04-06T07:53:54.173Z,996.47
2019-04-06T07:54:54.201Z,996.49
2019-04-06T07:55:54.151Z,996.50
2019-04-06T07:56:54.138Z,996.42
2019-04-06T07:57:54.137Z,996.42
2019-04-06T07:58:54.115Z,996.38
2019-04-06T07:59:54.140Z,996.38
2019-04-06T08:00:54.092Z,996.39
2019-04-06T08:01:54.266Z,996.38
2019-04-06T08:02:54.120Z,996.35
2019-04-06T08:03:54.056Z,996.39
2019-04-06T08:04:54.082Z,996.36
2019-04-06T08:05:54.038Z,996.37
2019-04-06T08:06:54.035Z,996.38
2019-04-06T08:07:54.066Z,996.27
2019-04-06T08:08:54.002Z,996.41
2019-04-06T08:09:55.635Z,996.40
2019-04-06T08:10:53.985Z,996.40
2019-04-06T08:11:53.989Z,996.38
2019-04-06T08:12:53.967Z,996.30
2019-04-06T08:13:53.948Z,996.32
2019-04-06T08:14:53.996Z,996.41
2019-04-06T08:15:53.936Z,996.36
2019-04-06T08:16:53.918Z,996.39
2019-04-06T08:17:54.144Z,996.31
2019-04-06T08:18:53.912Z,996.29
2019-04-06T08:19:53.933Z,996.36
2019-04-06T08:20:53.872Z,996.30
2019-04-06T08:21:53.869Z,996.31
2019-04-06T08:22:53.854Z,996.28
2019-04-06T08:23:54.057Z,996.29
2019-04-06T08:24:53.873Z,996.30
2019-04-06T08:25:54.027Z,996.36
2019-04-06T08:26:53.813Z,996.33
2019-04-06T08:27:53.862Z,996.28
2019-04-06T08:29:00.277Z,996.27
2019-04-06T08:29:54.812Z,996.27
2019-04-06T08:30:53.781Z,996.26
2019-04-06T08:31:53.741Z,996.25
2019-04-06T08:32:53.741Z,996.18
2019-04-06T08:33:53.897Z,996.23
2019-04-06T08:34:53.753Z,996.27
2019-04-06T08:35:53.723Z,996.27
2019-04-06T08:36:53.704Z,996.29
2019-04-06T08:37:53.678Z,996.22
2019-04-06T08:38:53.759Z,996.20
2019-04-06T08:39:53.775Z,996.23
2019-04-06T08:40:53.650Z,996.33
2019-04-06T08:41:53.653Z,996.28
2019-04-06T08:42:54.483Z,996.25
2019-04-06T08:43:53.611Z,996.20
2019-04-06T08:44:54.142Z,996.28
2019-04-06T08:45:53.600Z,996.32
2019-04-06T08:46:53.589Z,996.22
2019-04-06T08:47:53.576Z,996.22
2019-04-06T08:48:53.559Z,996.23
2019-04-06T08:49:53.750Z,996.21
2019-04-06T08:50:53.555Z,996.24
2019-04-06T08:51:53.524Z,996.17
2019-04-06T08:52:53.505Z,996.19
2019-04-06T08:53:53.494Z,996.08
2019-04-06T08:54:53.754Z,996.11
2019-04-06T08:55:53.492Z,996.18
2019-04-06T08:56:53.493Z,996.21
2019-04-06T08:57:53.459Z,996.17
2019-04-06T08:58:53.454Z,996.21
2019-04-06T08:59:53.507Z,996.19
2019-04-06T09:00:53.449Z,996.22
2019-04-06T09:01:53.433Z,996.14
2019-04-06T09:02:53.452Z,996.15
2019-04-06T09:03:53.574Z,996.20
2019-04-06T09:04:53.463Z,996.16
2019-04-06T09:05:53.452Z,996.15
2019-04-06T09:06:53.363Z,996.20
2019-04-06T09:07:53.463Z,996.12
2019-04-06T09:08:53.331Z,996.16
2019-04-06T09:09:53.371Z,996.15
2019-04-06T09:10:53.358Z,996.17
2019-04-06T09:11:53.309Z,996.10
2019-04-06T09:12:53.400Z,996.19
2019-04-06T09:13:53.275Z,996.08
2019-04-06T09:14:54.729Z,996.12
2019-04-06T09:15:53.251Z,996.06
2019-04-06T09:16:53.267Z,996.11
2019-04-06T09:17:53.265Z,996.12
2019-04-06T09:18:53.219Z,996.07
2019-04-06T09:19:53.300Z,996.10
2019-04-06T09:20:53.201Z,996.12
2019-04-06T09:21:54.978Z,996.10
2019-04-06T09:22:53.173Z,995.99
2019-04-06T09:23:53.184Z,996.08
2019-04-06T09:24:53.197Z,995.93
2019-04-06T09:25:53.147Z,996.00
2019-04-06T09:26:53.130Z,995.97
2019-04-06T09:27:53.367Z,995.89
2019-04-06T09:28:53.108Z,995.99
2019-04-06T09:29:53.139Z,995.91
2019-04-06T09:30:53.080Z,996.00
2019-04-06T09:31:53.073Z,995.94
2019-04-06T09:32:53.074Z,995.95
2019-04-06T09:33:53.237Z,995.90
2019-04-06T09:34:53.080Z,996.00
2019-04-06T09:35:53.050Z,995.98
2019-04-06T09:36:53.067Z,996.01
2019-04-06T09:37:53.005Z,996.00
2019-04-06T09:38:53.090Z,996.01
2019-04-06T09:39:53.149Z,995.99
2019-04-06T09:40:53.090Z,995.86
2019-04-06T09:41:52.974Z,995.88
2019-04-06T09:42:53.008Z,995.91
2019-04-06T09:43:52.951Z,995.88
2019-04-06T09:44:52.945Z,995.88
2019-04-06T09:45:52.999Z,995.88
2019-04-06T09:46:52.903Z,995.91
2019-04-06T09:47:52.920Z,995.87
2019-04-06T09:48:52.890Z,995.88
2019-04-06T09:49:52.882Z,995.86
2019-04-06T09:50:52.921Z,995.90
2019-04-06T09:51:52.871Z,995.93
2019-04-06T09:52:52.864Z,995.87
2019-04-06T09:54:04.530Z,996.00
2019-04-06T09:54:54.000Z,996.00
2019-04-06T09:55:52.905Z,995.95
2019-04-06T09:56:52.797Z,996.04
2019-04-06T09:57:52.785Z,996.03
2019-04-06T09:58:52.783Z,995.93
2019-04-06T09:59:52.757Z,995.94
2019-04-06T10:00:52.791Z,995.96
2019-04-06T10:01:52.760Z,995.88
2019-04-06T10:02:52.739Z,995.89
2019-04-06T10:03:52.722Z,995.83
2019-04-06T10:04:52.717Z,995.89
2019-04-06T10:05:53.055Z,995.87
2019-04-06T10:06:52.697Z,995.86
2019-04-06T10:07:52.695Z,995.91
2019-04-06T10:08:52.679Z,995.87
2019-04-06T10:09:52.844Z,995.94
2019-04-06T10:10:52.689Z,995.94
2019-04-06T10:11:52.645Z,996.02
2019-04-06T10:12:52.620Z,995.95
2019-04-06T10:13:52.633Z,995.93
2019-04-06T10:14:52.616Z,995.98
2019-04-06T10:15:52.626Z,995.99
2019-04-06T10:16:52.591Z,995.92
2019-04-06T10:17:52.644Z,995.99
2019-04-06T10:18:52.569Z,995.97
2019-04-06T10:19:54.461Z,995.93
2019-04-06T10:20:54.161Z,995.86
2019-04-06T10:21:52.520Z,995.84
2019-04-06T10:22:52.512Z,995.91
2019-04-06T10:23:52.556Z,995.83
2019-04-06T10:24:52.486Z,995.81
2019-04-06T10:25:52.513Z,995.80
2019-04-06T10:26:52.692Z,995.77
2019-04-06T10:27:52.591Z,995.84
2019-04-06T10:28:52.473Z,995.75
2019-04-06T10:29:52.443Z,995.91
2019-04-06T10:30:53.668Z,995.83
2019-04-06T10:31:52.413Z,995.78
2019-04-06T10:32:52.399Z,995.84
2019-04-06T10:33:52.395Z,995.77
2019-04-06T10:34:52.409Z,995.80
2019-04-06T10:35:54.159Z,995.85
2019-04-06T10:36:52.358Z,995.86
2019-04-06T10:37:52.626Z,995.83
2019-04-06T10:38:52.339Z,995.81
2019-04-06T10:39:52.415Z,995.86
2019-04-06T10:40:52.308Z,995.80
2019-04-06T10:41:52.379Z,995.85
2019-04-06T10:42:52.315Z,995.85
2019-04-06T10:43:52.511Z,995.81
2019-04-06T10:44:52.277Z,995.82
2019-04-06T10:45:52.265Z,995.75
2019-04-06T10:46:52.288Z,995.75
2019-04-06T10:47:52.235Z,995.79
2019-04-06T10:48:52.229Z,995.89
2019-04-06T10:49:52.487Z,995.81
2019-04-06T10:50:52.198Z,995.83
2019-04-06T10:51:52.286Z,995.86
2019-04-06T10:52:52.189Z,995.77
2019-04-06T10:53:52.185Z,995.78
2019-04-06T10:54:52.357Z,995.84
2019-04-06T10:55:52.167Z,995.84
2019-04-06T10:56:52.245Z,995.81
2019-04-06T10:57:52.136Z,995.86
2019-04-06T10:58:52.146Z,995.84
2019-04-06T11:00:00.951Z,995.87
2019-04-06T11:00:53.707Z,995.85
2019-04-06T11:01:54.043Z,995.91
2019-04-06T11:02:52.077Z,995.90
2019-04-06T11:03:52.058Z,995.82
2019-04-06T11:04:52.051Z,995.79
2019-04-06T11:05:52.163Z,995.87
2019-04-06T11:06:52.143Z,995.87
2019-04-06T11:07:52.055Z,995.83
2019-04-06T11:08:51.996Z,995.87
2019-04-06T11:09:51.997Z,995.79
2019-04-06T11:10:52.048Z,995.82
2019-04-06T11:11:51.967Z,995.80
2019-04-06T11:12:52.008Z,995.80
2019-04-06T11:13:51.951Z,995.75
2019-04-06T11:14:51.930Z,995.71
2019-04-06T11:15:51.932Z,995.76
2019-04-06T11:16:51.931Z,995.74
2019-04-06T11:17:51.935Z,995.72
2019-04-06T11:18:51.954Z,995.75
2019-04-06T11:19:51.881Z,995.81
2019-04-06T11:20:51.861Z,995.78
2019-04-06T11:21:51.877Z,995.78
2019-04-06T11:22:51.908Z,995.79
2019-04-06T11:23:51.835Z,995.79
2019-04-06T11:24:51.818Z,995.73
2019-04-06T11:25:51.811Z,995.80
2019-04-06T11:26:52.083Z,995.85
2019-04-06T11:27:51.953Z,995.74
2019-04-06T11:28:51.843Z,995.70
2019-04-06T11:29:51.767Z,995.66
2019-04-06T11:30:51.760Z,995.66
2019-04-06T11:31:51.750Z,995.72
2019-04-06T11:32:51.782Z,995.72
2019-04-06T11:33:51.739Z,995.66
2019-04-06T11:34:51.709Z,995.66
2019-04-06T11:35:51.704Z,995.66
2019-04-06T11:36:51.691Z,995.70
2019-04-06T11:37:51.677Z,995.66
2019-04-06T11:38:51.697Z,995.58
2019-04-06T11:39:51.776Z,995.56
2019-04-06T11:40:51.646Z,995.63
2019-04-06T11:41:53.391Z,995.64
2019-04-06T11:42:51.666Z,995.59
2019-04-06T11:43:51.643Z,995.59
2019-04-06T11:44:51.742Z,995.66
2019-04-06T11:45:51.583Z,995.66
2019-04-06T11:46:51.615Z,995.64
2019-04-06T11:47:51.567Z,995.62
2019-04-06T11:48:51.889Z,995.62
2019-04-06T11:49:51.554Z,995.54
2019-04-06T11:50:51.567Z,995.58
2019-04-06T11:51:51.676Z,995.58
2019-04-06T11:52:51.557Z,995.63
2019-04-06T11:53:51.536Z,995.63
2019-04-06T11:54:51.531Z,995.68
2019-04-06T11:55:51.473Z,995.64
2019-04-06T11:56:51.470Z,995.59
2019-04-06T11:57:51.447Z,995.63
2019-04-06T11:58:51.683Z,995.62
2019-04-06T11:59:51.425Z,995.60
2019-04-06T12:00:51.456Z,995.61
2019-04-06T12:01:51.488Z,995.61
2019-04-06T12:02:51.395Z,995.60
2019-04-06T12:03:51.434Z,995.67
2019-04-06T12:04:51.377Z,995.62
2019-04-06T12:05:51.498Z,995.57
2019-04-06T12:06:51.348Z,995.62
2019-04-06T12:07:51.339Z,995.64
2019-04-06T12:08:51.487Z,995.64
2019-04-06T12:09:51.328Z,995.62
2019-04-06T12:10:51.316Z,995.66
2019-04-06T12:11:51.306Z,995.67
2019-04-06T12:12:51.321Z,995.60
2019-04-06T12:13:51.324Z,995.57
2019-04-06T12:14:51.281Z,995.55
2019-04-06T12:15:51.247Z,995.51
2019-04-06T12:16:51.245Z,995.61
2019-04-06T12:17:51.227Z,995.50
2019-04-06T12:18:51.281Z,995.52
2019-04-06T12:19:51.241Z,995.50
2019-04-06T12:20:51.203Z,995.51
2019-04-06T12:21:51.183Z,995.53
2019-04-06T12:22:51.375Z,995.51
2019-04-06T12:23:51.167Z,995.53
2019-04-06T12:24:51.207Z,995.50
2019-04-06T12:25:51.485Z,995.46
2019-04-06T12:26:51.131Z,995.48
2019-04-06T12:27:51.117Z,995.51
2019-04-06T12:28:51.114Z,995.44
2019-04-06T12:29:51.149Z,995.51
2019-04-06T12:30:51.453Z,995.57